createdAt,value
2022-09-23T00:04:42.892Z,86.20
2022-09-23T00:15:08.820Z,87.27
2022-09-23T00:20:12.696Z,86.72
2022-09-23T00:25:16.796Z,87.01
2022-09-23T00:30:19.642Z,86.72
2022-09-23T00:35:22.512Z,86.55
2022-09-23T00:40:26.637Z,86.46
2022-09-23T00:45:30.924Z,87.10
2022-09-23T00:50:38.700Z,87.68
2022-09-23T00:55:47.582Z,87.41
2022-09-23T01:00:50.701Z,87.00
2022-09-23T01:05:53.973Z,86.47
2022-09-23T01:11:08.797Z,85.75
2022-09-23T01:16:19.514Z,86.61
2022-09-23T01:21:38.628Z,86.84
2022-09-23T01:26:54.212Z,85.14
2022-09-23T01:32:04.343Z,84.85
2022-09-23T01:37:12.621Z,83.55
2022-09-23T01:42:18.036Z,84.06
2022-09-23T01:47:26.224Z,83.66
2022-09-23T01:52:33.498Z,83.76
2022-09-23T01:57:41.447Z,83.54
2022-09-23T02:02:50.808Z,84.14
2022-09-23T02:07:59.846Z,84.93
2022-09-23T02:13:07.321Z,84.81
2022-09-23T02:18:16.141Z,85.18
2022-09-23T02:23:24.356Z,85.60
2022-09-23T02:28:34.765Z,85.80
2022-09-23T02:33:44.482Z,86.12
2022-09-23T02:38:54.402Z,85.46
2022-09-23T02:44:03.540Z,84.50
2022-09-23T02:49:12.719Z,83.82
2022-09-23T02:54:19.572Z,84.16
2022-09-23T02:59:23.975Z,84.32
2022-09-23T03:04:38.368Z,84.38
2022-09-23T03:09:46.784Z,84.41
2022-09-23T03:14:54.099Z,84.67
2022-09-23T03:20:03.002Z,83.83
2022-09-23T03:25:10.491Z,83.99
2022-09-23T03:30:14.685Z,84.37
2022-09-23T03:35:19.213Z,83.72
2022-09-23T03:40:27.143Z,83.76
2022-09-23T03:45:34.137Z,83.51
2022-09-23T03:50:39.267Z,83.59
2022-09-23T03:55:42.165Z,83.91
2022-09-23T04:00:46.751Z,84.54
2022-09-23T04:05:51.645Z,85.03
2022-09-23T04:10:59.666Z,85.37
2022-09-23T04:16:03.203Z,86.02
2022-09-23T04:21:07.607Z,85.91
2022-09-23T04:26:10.923Z,85.74
2022-09-23T04:31:13.687Z,85.76
2022-09-23T04:36:18.058Z,85.95
2022-09-23T04:41:21.084Z,85.77
2022-09-23T04:46:24.192Z,85.19
2022-09-23T04:51:29.421Z,84.43
2022-09-23T04:56:33.573Z,84.98
2022-09-23T05:01:38.477Z,84.65
2022-09-23T05:06:44.980Z,84.39
2022-09-23T05:11:48.169Z,83.65
2022-09-23T05:16:50.945Z,83.61
2022-09-23T05:21:55.412Z,83.55
2022-09-23T05:26:58.176Z,83.72
2022-09-23T05:32:01.517Z,83.52
2022-09-23T05:37:08.237Z,83.04
2022-09-23T05:42:12.329Z,83.12
2022-09-23T05:47:15.436Z,82.73
2022-09-23T05:52:19.948Z,81.78
2022-09-23T05:57:22.766Z,81.84
2022-09-23T06:02:25.599Z,81.39
2022-09-23T06:07:31.549Z,81.28
2022-09-23T06:12:35.809Z,80.97
2022-09-23T06:17:38.638Z,80.70
2022-09-23T06:22:42.808Z,81.40
2022-09-23T06:27:45.771Z,81.96
2022-09-23T06:32:52.128Z,80.95
2022-09-23T06:37:57.414Z,81.31
2022-09-23T06:43:00.819Z,80.03
2022-09-23T06:48:04.822Z,79.88
2022-09-23T06:53:09.138Z,78.02
2022-09-23T06:58:12.662Z,75.38
2022-09-23T07:03:15.588Z,71.79
2022-09-23T07:08:20.104Z,65.72
2022-09-23T07:13:23.568Z,61.35
2022-09-23T07:18:27.803Z,57.46
2022-09-23T07:23:33.475Z,55.56
2022-09-23T07:28:37.044Z,52.51
2022-09-23T07:33:44.038Z,54.13
2022-09-23T07:38:48.417Z,58.39
2022-09-23T07:43:52.663Z,61.81
2022-09-23T07:48:55.789Z,63.57
2022-09-23T07:54:00.236Z,64.83
2022-09-23T07:59:04.059Z,65.35
2022-09-23T08:04:10.165Z,65.04
2022-09-23T08:09:14.836Z,64.37
2022-09-23T08:14:19.061Z,63.50
2022-09-23T08:19:21.920Z,63.11
2022-09-23T08:24:26.521Z,63.46
2022-09-23T08:29:29.647Z,64.29
2022-09-23T08:34:32.381Z,64.57
2022-09-23T08:39:36.467Z,64.56
2022-09-23T08:44:48.045Z,65.19
2022-09-23T08:50:01.597Z,64.66
2022-09-23T08:55:12.236Z,64.56
2022-09-23T09:00:21.572Z,63.75
2022-09-23T09:05:27.800Z,64.12
2022-09-23T09:10:36.598Z,63.13
2022-09-23T09:15:48.509Z,62.88
2022-09-23T09:20:58.943Z,63.40
2022-09-23T09:26:04.578Z,62.84
2022-09-23T09:31:24.157Z,62.08
2022-09-23T09:36:37.228Z,61.51
2022-09-23T09:41:45.404Z,62.16
2022-09-23T09:46:54.488Z,61.06
2022-09-23T09:52:15.916Z,60.03
2022-09-23T09:57:33.528Z,59.85
2022-09-23T10:02:40.761Z,58.34
2022-09-23T10:07:43.576Z,57.59
2022-09-23T10:12:49.069Z,56.36
2022-09-23T10:17:52.408Z,54.67
2022-09-23T10:22:56.637Z,54.89
2022-09-23T10:28:23.521Z,54.77
2022-09-23T10:33:28.203Z,53.17
2022-09-23T10:38:31.246Z,50.63
2022-09-23T10:44:02.198Z,49.74
2022-09-23T10:49:21.117Z,48.79
2022-09-23T10:54:37.202Z,47.87
2022-09-23T10:59:57.715Z,48.15
2022-09-23T11:05:32.605Z,46.60
2022-09-23T11:10:56.689Z,46.16
2022-09-23T11:16:09.009Z,43.25
2022-09-23T11:21:28.929Z,42.16
2022-09-23T11:26:42.952Z,41.11
2022-09-23T11:31:59.782Z,41.08
2022-09-23T11:37:07.282Z,41.96
2022-09-23T11:42:18.293Z,43.04
2022-09-23T11:47:26.951Z,42.13
2022-09-23T11:52:34.672Z,41.80
2022-09-23T11:57:49.735Z,40.87
2022-09-23T12:03:06.550Z,42.54
2022-09-23T12:08:20.628Z,41.07
2022-09-23T12:13:31.515Z,41.44
2022-09-23T12:18:49.594Z,41.96
2022-09-23T12:24:03.181Z,41.97
2022-09-23T12:29:08.237Z,41.17
2022-09-23T12:34:24.135Z,40.60
2022-09-23T12:39:31.686Z,40.24
2022-09-23T12:44:40.680Z,41.50
2022-09-23T12:49:45.258Z,41.17
2022-09-23T12:54:49.831Z,41.87
2022-09-23T12:59:58.971Z,40.30
2022-09-23T13:05:35.096Z,41.27
2022-09-23T13:10:45.030Z,41.19
2022-09-23T13:15:48.312Z,40.19
2022-09-23T13:20:53.957Z,39.85
2022-09-23T13:26:00.417Z,40.76
2022-09-23T13:31:06.219Z,40.88
2022-09-23T13:36:15.279Z,40.88
2022-09-23T13:41:20.677Z,41.66
2022-09-23T13:46:26.855Z,41.25
2022-09-23T13:51:35.093Z,40.61
2022-09-23T13:56:37.999Z,41.54
2022-09-23T14:01:40.897Z,41.42
2022-09-23T14:06:45.229Z,41.89
2022-09-23T14:11:48.223Z,40.97
2022-09-23T14:16:53.355Z,41.00
2022-09-23T14:21:58.992Z,40.88
2022-09-23T14:27:10.489Z,40.81
2022-09-23T14:32:17.280Z,41.55
2022-09-23T14:37:46.569Z,41.72
2022-09-23T14:42:52.667Z,42.04
2022-09-23T14:48:00.153Z,41.61
2022-09-23T14:53:04.290Z,42.96
2022-09-23T14:58:17.846Z,42.63
2022-09-23T15:03:22.072Z,43.38
2022-09-23T15:08:28.770Z,43.37
2022-09-23T15:13:34.291Z,44.45
2022-09-23T15:18:38.751Z,45.25
2022-09-23T15:23:48.897Z,44.43
2022-09-23T15:28:54.067Z,45.04
2022-09-23T15:33:57.169Z,45.22
2022-09-23T15:39:06.217Z,45.70
2022-09-23T15:44:13.778Z,46.82
2022-09-23T15:49:23.386Z,46.98
2022-09-23T15:54:27.794Z,47.19
2022-09-23T15:59:31.633Z,47.81
2022-09-23T16:04:35.974Z,48.81
2022-09-23T16:09:40.494Z,49.67
2022-09-23T16:14:43.429Z,48.96
2022-09-23T16:19:46.299Z,48.70
2022-09-23T16:24:50.473Z,50.49
2022-09-23T16:29:53.597Z,51.49
2022-09-23T16:34:58.514Z,51.18
2022-09-23T16:40:03.795Z,52.45
2022-09-23T16:45:07.721Z,53.60
2022-09-23T16:50:11.170Z,53.58
2022-09-23T16:55:17.347Z,54.70
2022-09-23T17:00:38.823Z,54.15
2022-09-23T17:05:42.954Z,55.58
2022-09-23T17:10:58.623Z,55.01
2022-09-23T17:16:02.335Z,55.89
2022-09-23T17:21:09.067Z,56.04
2022-09-23T17:26:13.795Z,56.44
2022-09-23T17:31:16.745Z,56.29
2022-09-23T17:36:20.693Z,57.93
2022-09-23T17:41:25.030Z,58.21
2022-09-23T17:46:31.029Z,58.38
2022-09-23T17:51:35.772Z,58.07
2022-09-23T17:56:42.843Z,59.23
2022-09-23T18:01:46.255Z,59.03
2022-09-23T18:06:49.444Z,59.35
2022-09-23T18:11:54.170Z,60.01
2022-09-23T18:16:57.611Z,59.77
2022-09-23T18:22:01.945Z,60.00
2022-09-23T18:27:07.377Z,59.38
2022-09-23T18:32:13.976Z,60.33
2022-09-23T18:37:17.290Z,60.85
2022-09-23T18:42:21.617Z,61.18
2022-09-23T18:47:41.581Z,62.01
2022-09-23T18:52:44.447Z,62.92
2022-09-23T18:57:49.069Z,63.78
2022-09-23T19:02:52.825Z,64.38
2022-09-23T19:07:55.608Z,64.91
2022-09-23T19:13:00.622Z,66.13
2022-09-23T19:18:03.472Z,66.43
2022-09-23T19:23:06.870Z,67.23
2022-09-23T19:28:11.066Z,67.30
2022-09-23T19:33:13.950Z,67.84
2022-09-23T19:38:17.626Z,67.18
2022-09-23T19:43:21.997Z,67.36
2022-09-23T19:48:25.067Z,69.15
2022-09-23T19:53:28.368Z,69.44
2022-09-23T19:58:33.087Z,69.75
2022-09-23T20:03:35.881Z,70.22
2022-09-23T20:08:39.242Z,70.49
2022-09-23T20:13:47.150Z,70.99
2022-09-23T20:18:53.687Z,70.84
2022-09-23T20:23:56.919Z,71.07
2022-09-23T20:29:01.540Z,70.94
2022-09-23T20:34:05.892Z,70.13
2022-09-23T20:39:10.028Z,69.92
2022-09-23T20:44:14.216Z,69.03
2022-09-23T20:49:17.995Z,68.63
2022-09-23T20:54:21.069Z,69.12
2022-09-23T20:59:27.169Z,70.31
2022-09-23T21:04:31.388Z,71.42
2022-09-23T21:09:34.158Z,71.56
2022-09-23T21:14:39.416Z,71.69
2022-09-23T21:19:42.214Z,71.75
2022-09-23T21:25:25.954Z,72.29
2022-09-23T21:30:10.933Z,72.86
2022-09-23T21:35:13.873Z,73.38
2022-09-23T21:40:34.561Z,73.93
2022-09-23T21:45:39.044Z,75.06
2022-09-23T21:50:42.220Z,75.54
2022-09-23T21:55:48.788Z,75.94
2022-09-23T22:00:52.949Z,76.42
2022-09-23T22:06:04.160Z,77.13
2022-09-23T22:11:08.886Z,78.32
2022-09-23T22:16:16.648Z,78.66
2022-09-23T22:21:20.531Z,78.84
2022-09-23T22:26:23.802Z,79.26
2022-09-23T22:31:45.459Z,80.00
2022-09-23T22:36:48.310Z,80.81
2022-09-23T22:41:51.350Z,81.18
2022-09-23T22:46:55.490Z,82.00
2022-09-23T22:51:59.563Z,82.04
2022-09-23T22:57:04.335Z,82.39
2022-09-23T23:02:08.624Z,82.87
2022-09-23T23:07:11.926Z,83.50
2022-09-23T23:12:14.717Z,83.74
2022-09-23T23:17:18.907Z,84.17
2022-09-23T23:22:21.718Z,83.94
2022-09-23T23:27:24.488Z,84.66
2022-09-23T23:32:28.551Z,85.18
2022-09-23T23:37:31.278Z,85.21
2022-09-23T23:42:34.617Z,86.34
2022-09-23T23:47:39.920Z,87.96
2022-09-23T23:52:42.630Z,88.67
2022-09-23T23:57:45.354Z,89.08
